createdAt,value
2023-03-21T00:00:46.015Z,11.27
2023-03-21T00:03:15.507Z,11.20
2023-03-21T00:05:49.829Z,11.12
2023-03-21T00:08:17.492Z,11.10
2023-03-21T00:10:45.760Z,11.09
2023-03-21T00:13:14.028Z,11.06
2023-03-21T00:16:06.173Z,11.01
2023-03-21T00:18:41.865Z,10.93
2023-03-21T00:21:39.600Z,10.85
2023-03-21T00:24:03.027Z,10.79
2023-03-21T00:26:31.592Z,10.75
2023-03-21T00:28:59.310Z,10.70
2023-03-21T00:31:27.219Z,10.69
2023-03-21T00:33:54.722Z,10.70
2023-03-21T00:36:25.805Z,10.73
2023-03-21T00:38:53.486Z,10.77
2023-03-21T00:41:35.233Z,10.78
2023-03-21T00:44:08.731Z,10.73
2023-03-21T00:46:45.618Z,10.71
2023-03-21T00:49:14.875Z,10.74
2023-03-21T00:51:44.512Z,10.75
2023-03-21T00:54:13.310Z,10.80
2023-03-21T00:56:40.914Z,10.84
2023-03-21T00:59:08.547Z,10.84
2023-03-21T01:01:36.185Z,10.84
2023-03-21T01:04:05.582Z,10.88
2023-03-21T01:06:34.122Z,10.87
2023-03-21T01:09:02.963Z,10.84
2023-03-21T01:11:30.667Z,10.79
2023-03-21T01:14:14.787Z,10.75
2023-03-21T01:16:46.801Z,10.74
2023-03-21T01:19:25.029Z,10.71
2023-03-21T01:21:53.967Z,10.69
2023-03-21T01:24:22.908Z,10.66
2023-03-21T01:26:50.431Z,10.63
2023-03-21T01:29:17.968Z,10.58
2023-03-21T01:31:45.567Z,10.55
2023-03-21T01:34:13.429Z,10.55
2023-03-21T01:36:41.066Z,10.59
2023-03-21T01:39:08.637Z,10.59
2023-03-21T01:41:43.461Z,10.58
2023-03-21T01:44:16.023Z,10.57
2023-03-21T01:46:57.076Z,10.56
2023-03-21T01:49:34.333Z,10.57
2023-03-21T01:52:14.006Z,10.59
2023-03-21T01:54:44.527Z,10.59
2023-03-21T01:57:19.786Z,10.59
2023-03-21T01:59:51.208Z,10.59
2023-03-21T02:02:23.235Z,10.60
2023-03-21T02:04:55.974Z,10.59
2023-03-21T02:07:28.787Z,10.58
2023-03-21T02:09:57.392Z,10.57
2023-03-21T02:12:27.404Z,10.55
2023-03-21T02:14:56.840Z,10.52
2023-03-21T02:17:32.113Z,10.51
2023-03-21T02:20:28.296Z,10.50
2023-03-21T02:23:29.175Z,10.46
2023-03-21T02:26:18.372Z,10.43
2023-03-21T02:28:56.929Z,10.38
2023-03-21T02:31:40.744Z,10.35
2023-03-21T02:34:32.708Z,10.26
2023-03-21T02:37:07.372Z,10.18
2023-03-21T02:39:49.483Z,10.20
2023-03-21T02:42:22.750Z,10.24
2023-03-21T02:44:59.376Z,10.29
2023-03-21T02:47:34.544Z,10.32
2023-03-21T02:50:10.173Z,10.34
2023-03-21T02:52:41.465Z,10.31
2023-03-21T02:55:14.191Z,10.29
2023-03-21T02:57:45.236Z,10.24
2023-03-21T03:00:19.002Z,10.21
2023-03-21T03:02:48.880Z,10.22
2023-03-21T03:05:21.758Z,10.21
2023-03-21T03:08:18.506Z,10.23
2023-03-21T03:10:59.549Z,10.24
2023-03-21T03:13:43.788Z,10.23
2023-03-21T03:16:22.845Z,10.22
2023-03-21T03:18:54.179Z,10.19
2023-03-21T03:21:25.986Z,10.17
2023-03-21T03:23:58.893Z,10.13
2023-03-21T03:26:31.196Z,10.10
2023-03-21T03:29:02.819Z,10.08
2023-03-21T03:31:34.575Z,10.04
2023-03-21T03:34:07.093Z,10.00
2023-03-21T03:36:38.992Z,9.96
2023-03-21T03:39:11.587Z,9.92
2023-03-21T03:42:05.967Z,9.92
2023-03-21T03:44:33.389Z,9.87
2023-03-21T03:47:06.934Z,9.85
2023-03-21T03:49:38.672Z,9.83
2023-03-21T03:52:13.038Z,9.80
2023-03-21T03:54:44.960Z,9.78
2023-03-21T03:57:13.925Z,9.76
2023-03-21T03:59:43.067Z,9.77
2023-03-21T04:02:10.960Z,9.78
2023-03-21T04:04:38.890Z,9.79
2023-03-21T04:07:07.738Z,9.78
2023-03-21T04:09:44.234Z,9.75
2023-03-21T04:12:14.334Z,9.78
2023-03-21T04:14:47.176Z,9.77
2023-03-21T04:17:15.687Z,9.75
2023-03-21T04:19:43.516Z,9.74
2023-03-21T04:22:11.866Z,9.71
2023-03-21T04:24:39.934Z,9.67
2023-03-21T04:27:07.742Z,9.66
2023-03-21T04:29:36.620Z,9.64
2023-03-21T04:32:04.295Z,9.66
2023-03-21T04:34:31.830Z,9.66
2023-03-21T04:36:59.385Z,9.66
2023-03-21T04:39:26.952Z,9.62
2023-03-21T04:41:54.455Z,9.63
2023-03-21T04:44:22.062Z,9.66
2023-03-21T04:46:51.765Z,9.70
2023-03-21T04:49:19.472Z,9.73
2023-03-21T04:51:46.933Z,9.70
2023-03-21T04:56:42.821Z,9.72
2023-03-21T04:59:12.646Z,9.76
2023-03-21T05:01:41.202Z,9.79
2023-03-21T05:04:10.813Z,9.82
2023-03-21T05:06:38.476Z,9.79
2023-03-21T05:09:07.032Z,9.76
2023-03-21T05:11:37.761Z,9.72
2023-03-21T05:14:05.792Z,9.69
2023-03-21T05:16:34.792Z,9.66
2023-03-21T05:19:04.968Z,9.62
2023-03-21T05:21:41.294Z,9.59
2023-03-21T05:24:12.243Z,9.58
2023-03-21T05:26:40.518Z,9.58
2023-03-21T05:29:08.779Z,9.59
2023-03-21T05:31:36.465Z,9.59
2023-03-21T05:34:04.235Z,9.58
2023-03-21T05:58:56.699Z,9.31
2023-03-21T06:01:25.037Z,9.28
2023-03-21T06:17:49.747Z,9.27
2023-03-21T06:20:52.138Z,9.32
2023-03-21T06:34:28.530Z,9.54
2023-03-21T06:47:25.411Z,9.78
2023-03-21T07:00:38.336Z,9.96
2023-03-21T07:03:06.033Z,10.02
2023-03-21T07:05:36.607Z,10.10
2023-03-21T07:08:05.335Z,10.14
2023-03-21T07:10:32.981Z,10.11
2023-03-21T07:13:01.197Z,10.15
2023-03-21T07:15:28.734Z,10.24
2023-03-21T07:17:56.402Z,10.29
2023-03-21T07:20:24.032Z,10.29
2023-03-21T07:22:52.888Z,10.29
2023-03-21T07:25:20.741Z,10.35
2023-03-21T07:27:48.264Z,10.41
2023-03-21T07:30:16.626Z,10.50
2023-03-21T07:32:45.586Z,10.57
2023-03-21T07:35:16.013Z,10.64
2023-03-21T07:37:44.080Z,10.69
2023-03-21T07:40:14.008Z,10.71
2023-03-21T07:42:42.115Z,10.75
2023-03-21T07:45:11.271Z,10.80
2023-03-21T07:47:38.786Z,10.86
2023-03-21T07:50:06.993Z,10.89
2023-03-21T07:52:34.499Z,10.92
2023-03-21T07:55:02.018Z,10.97
2023-03-21T07:57:30.852Z,11.04
2023-03-21T07:59:58.432Z,11.11
2023-03-21T08:02:26.503Z,11.20
2023-03-21T08:04:54.033Z,11.31
2023-03-21T08:07:21.589Z,11.40
2023-03-21T08:09:49.238Z,11.49
2023-03-21T08:12:16.845Z,11.60
2023-03-21T08:14:46.170Z,11.58
2023-03-21T08:17:13.674Z,11.57
2023-03-21T08:19:41.205Z,11.61
2023-03-21T08:22:08.820Z,11.68
2023-03-21T08:24:36.318Z,11.78
2023-03-21T08:27:03.896Z,11.90
2023-03-21T08:29:31.428Z,12.05
2023-03-21T08:32:00.399Z,12.14
2023-03-21T08:34:27.914Z,12.37
2023-03-21T08:36:55.507Z,12.61
2023-03-21T08:39:24.855Z,12.71
2023-03-21T08:41:52.439Z,12.83
2023-03-21T08:44:20.190Z,12.98
2023-03-21T08:46:47.777Z,13.11
2023-03-21T08:49:16.613Z,13.10
2023-03-21T08:51:45.803Z,13.16
2023-03-21T08:54:20.622Z,13.31
2023-03-21T08:56:48.657Z,13.42
2023-03-21T08:59:16.415Z,13.56
2023-03-21T09:01:44.424Z,13.68
2023-03-21T09:04:12.022Z,13.88
2023-03-21T09:06:47.854Z,14.06
2023-03-21T09:09:15.457Z,14.12
2023-03-21T09:11:43.141Z,14.17
2023-03-21T09:14:11.711Z,14.22
2023-03-21T09:16:39.439Z,14.26
2023-03-21T09:19:08.639Z,14.25
2023-03-21T09:21:36.766Z,14.29
2023-03-21T09:24:06.581Z,14.41
2023-03-21T09:26:34.895Z,14.58
2023-03-21T09:29:03.090Z,14.72
2023-03-21T09:31:30.939Z,14.81
2023-03-21T09:33:58.907Z,14.87
2023-03-21T09:36:27.289Z,14.92
2023-03-21T09:38:56.933Z,14.96
2023-03-21T09:41:42.015Z,15.03
2023-03-21T09:44:24.719Z,15.13
2023-03-21T09:46:59.440Z,15.35
2023-03-21T09:49:31.060Z,15.53
2023-03-21T09:52:03.583Z,15.71
2023-03-21T09:54:34.758Z,15.95
2023-03-21T09:57:14.951Z,16.25
2023-03-21T09:59:42.936Z,16.60
2023-03-21T10:02:35.951Z,17.00
2023-03-21T10:05:09.432Z,17.35
2023-03-21T10:07:41.787Z,17.66
2023-03-21T10:10:17.590Z,18.06
2023-03-21T10:12:48.769Z,18.52
2023-03-21T10:15:19.287Z,18.95
2023-03-21T10:17:53.815Z,19.29
2023-03-21T10:20:23.837Z,19.61
2023-03-21T10:22:53.532Z,19.92
2023-03-21T10:25:25.361Z,20.28
2023-03-21T10:27:54.319Z,20.82
2023-03-21T10:30:29.553Z,21.31
2023-03-21T10:33:02.405Z,21.64
2023-03-21T10:37:59.052Z,21.76
2023-03-21T10:40:26.570Z,21.98
2023-03-21T10:42:57.538Z,22.26
2023-03-21T10:45:25.516Z,22.61
2023-03-21T10:47:55.377Z,22.87
2023-03-21T10:50:26.600Z,23.24
2023-03-21T10:53:00.425Z,23.74
2023-03-21T10:55:31.999Z,23.92
2023-03-21T10:58:07.650Z,24.14
2023-03-21T11:00:38.386Z,24.28
2023-03-21T11:03:06.866Z,24.49
2023-03-21T11:05:38.446Z,24.78
2023-03-21T11:08:08.050Z,25.07
2023-03-21T11:10:38.001Z,25.20
2023-03-21T11:13:18.091Z,25.15
2023-03-21T11:15:53.789Z,25.03
2023-03-21T11:18:23.717Z,24.99
2023-03-21T11:20:54.010Z,25.05
2023-03-21T11:23:23.041Z,24.90
2023-03-21T11:25:51.812Z,24.74
2023-03-21T11:28:23.667Z,24.58
2023-03-21T11:30:54.412Z,24.47
2023-03-21T11:33:27.007Z,24.28
2023-03-21T11:36:02.830Z,23.94
2023-03-21T11:38:33.221Z,23.73
2023-03-21T11:41:03.037Z,23.55
2023-03-21T11:43:35.931Z,23.31
2023-03-21T11:46:08.326Z,23.19
2023-03-21T11:48:39.032Z,23.15
2023-03-21T11:51:17.838Z,23.17
2023-03-21T11:53:50.000Z,23.20
2023-03-21T11:56:23.275Z,23.28
2023-03-21T11:59:06.879Z,23.19
2023-03-21T12:01:43.137Z,23.14
2023-03-21T12:04:21.722Z,23.17
2023-03-21T12:06:57.350Z,23.38
2023-03-21T12:09:35.932Z,23.43
2023-03-21T12:12:22.057Z,23.30
2023-03-21T12:15:02.215Z,23.07
2023-03-21T12:17:41.429Z,22.88
2023-03-21T12:20:27.338Z,22.87
2023-03-21T12:23:12.020Z,22.98
2023-03-21T12:25:44.814Z,22.92
2023-03-21T12:28:32.491Z,22.57
2023-03-21T12:31:10.450Z,22.14
2023-03-21T12:33:50.280Z,21.93
2023-03-21T12:36:31.754Z,21.88
2023-03-21T12:39:13.368Z,21.74
2023-03-21T12:41:46.551Z,21.52
2023-03-21T12:44:16.388Z,21.27
2023-03-21T12:46:48.458Z,20.96
2023-03-21T12:49:19.157Z,20.78
2023-03-21T12:51:52.185Z,20.62
2023-03-21T12:54:26.478Z,20.36
2023-03-21T12:57:02.726Z,20.15
2023-03-21T12:59:37.167Z,20.09
2023-03-21T13:21:01.824Z,19.45
2023-03-21T13:23:37.249Z,19.29
2023-03-21T13:26:09.323Z,19.14
2023-03-21T13:28:39.688Z,19.05
2023-03-21T13:31:19.709Z,18.96
2023-03-21T13:33:50.744Z,18.80
2023-03-21T13:36:25.848Z,18.65
2023-03-21T13:38:56.234Z,18.56
2023-03-21T13:41:31.421Z,18.47
2023-03-21T13:44:09.892Z,18.42
2023-03-21T13:46:53.475Z,18.39
2023-03-21T13:49:29.259Z,18.33
2023-03-21T13:52:01.304Z,18.25
2023-03-21T13:54:44.681Z,18.17
2023-03-21T13:57:24.679Z,18.05
2023-03-21T14:00:21.089Z,18.02
2023-03-21T14:02:59.946Z,17.96
2023-03-21T14:05:29.491Z,17.89
2023-03-21T14:08:13.650Z,17.86
2023-03-21T14:10:46.140Z,17.77
2023-03-21T14:13:18.389Z,17.66
2023-03-21T14:15:55.198Z,17.64
2023-03-21T14:18:52.498Z,17.56
2023-03-21T14:21:23.815Z,17.49
2023-03-21T14:23:59.733Z,17.40
2023-03-21T14:26:30.296Z,17.28
2023-03-21T14:28:58.696Z,17.18
2023-03-21T14:31:27.540Z,17.10
2023-03-21T14:33:58.780Z,17.08
2023-03-21T14:36:28.401Z,17.06
2023-03-21T14:39:05.181Z,17.05
2023-03-21T14:41:34.725Z,17.08
2023-03-21T14:44:14.942Z,17.13
2023-03-21T14:46:43.579Z,17.08
2023-03-21T14:49:13.064Z,17.07
2023-03-21T14:51:42.479Z,17.02
2023-03-21T14:54:17.581Z,16.97
2023-03-21T14:56:48.301Z,16.95
2023-03-21T14:59:18.543Z,16.93
2023-03-21T15:01:48.565Z,16.87
2023-03-21T15:04:17.715Z,16.86
2023-03-21T15:06:53.708Z,16.83
2023-03-21T15:09:27.153Z,16.76
2023-03-21T15:11:56.454Z,16.73
2023-03-21T15:14:31.515Z,16.70
2023-03-21T15:17:02.070Z,16.65
2023-03-21T15:19:33.573Z,16.60
2023-03-21T15:22:09.740Z,16.61
2023-03-21T15:24:42.407Z,16.62
2023-03-21T15:27:17.471Z,16.60
2023-03-21T15:29:46.200Z,16.56
2023-03-21T15:32:18.383Z,16.50
2023-03-21T15:34:47.111Z,16.43
2023-03-21T15:37:19.025Z,16.36
2023-03-21T15:39:49.318Z,16.36
2023-03-21T15:42:31.095Z,16.37
2023-03-21T15:45:02.350Z,16.36
2023-03-21T15:47:50.983Z,16.32
2023-03-21T15:50:27.583Z,16.29
2023-03-21T15:52:56.939Z,16.28
2023-03-21T15:55:30.640Z,16.25
2023-03-21T15:58:04.574Z,16.19
2023-03-21T16:00:39.732Z,16.10
2023-03-21T16:03:17.177Z,16.04
2023-03-21T16:06:03.125Z,16.00
2023-03-21T16:08:35.790Z,15.98
2023-03-21T16:11:17.353Z,15.96
2023-03-21T16:13:44.970Z,15.97
2023-03-21T16:16:18.053Z,16.00
2023-03-21T16:18:45.842Z,15.99
2023-03-21T16:21:14.754Z,15.92
2023-03-21T16:23:45.905Z,15.88
2023-03-21T16:26:17.496Z,15.89
2023-03-21T16:28:46.015Z,15.86
2023-03-21T16:31:16.405Z,15.85
2023-03-21T16:33:44.379Z,15.78
2023-03-21T16:36:15.559Z,15.72
2023-03-21T16:38:43.271Z,15.73
2023-03-21T16:41:11.953Z,15.72
2023-03-21T16:43:43.252Z,15.75
2023-03-21T16:46:14.544Z,15.72
2023-03-21T16:48:42.527Z,15.73
2023-03-21T16:51:14.013Z,15.66
2023-03-21T16:53:41.644Z,15.60
2023-03-21T16:56:15.645Z,15.58
2023-03-21T16:58:44.613Z,15.51
2023-03-21T17:01:15.478Z,15.48
2023-03-21T17:03:43.904Z,15.50
2023-03-21T17:06:15.469Z,15.48
2023-03-21T17:08:43.219Z,15.44
2023-03-21T17:11:11.710Z,15.41
2023-03-21T17:13:39.300Z,15.40
2023-03-21T17:16:08.824Z,15.41
2023-03-21T17:18:36.403Z,15.39
2023-03-21T17:21:04.369Z,15.36
2023-03-21T17:23:31.921Z,15.32
2023-03-21T17:25:59.599Z,15.31
2023-03-21T17:28:27.203Z,15.29
2023-03-21T17:30:54.828Z,15.24
2023-03-21T17:33:23.891Z,15.21
2023-03-21T17:35:51.477Z,15.19
2023-03-21T17:38:19.099Z,15.20
2023-03-21T17:40:46.812Z,15.18
2023-03-21T17:43:18.275Z,15.15
2023-03-21T17:45:45.929Z,15.15
2023-03-21T17:48:13.530Z,15.13
2023-03-21T17:50:43.224Z,15.09
2023-03-21T17:53:10.835Z,15.03
2023-03-21T17:55:38.406Z,14.99
2023-03-21T17:58:06.297Z,14.93
2023-03-21T18:00:33.922Z,14.87
2023-03-21T18:03:01.516Z,14.78
2023-03-21T18:05:29.779Z,14.71
2023-03-21T18:08:13.896Z,14.65
2023-03-21T18:10:42.905Z,14.57
2023-03-21T18:13:11.486Z,14.50
2023-03-21T18:15:44.176Z,14.44
2023-03-21T18:18:12.969Z,14.40
2023-03-21T18:20:58.539Z,14.32
2023-03-21T18:23:27.792Z,14.25
2023-03-21T18:25:55.567Z,14.20
2023-03-21T18:28:23.240Z,14.19
2023-03-21T18:33:40.411Z,14.14
2023-03-21T18:36:08.941Z,14.12
2023-03-21T18:38:38.341Z,14.09
2023-03-21T18:41:07.629Z,14.04
2023-03-21T18:46:24.204Z,13.95
2023-03-21T18:48:52.424Z,13.92
2023-03-21T18:51:20.068Z,13.89
2023-03-21T18:53:49.110Z,13.87
2023-03-21T18:59:05.874Z,13.77
2023-03-21T19:07:07.723Z,13.66
2023-03-21T19:12:25.919Z,13.64
2023-03-21T19:14:53.515Z,13.64
2023-03-21T19:20:11.989Z,13.59
2023-03-21T19:22:39.616Z,13.58
2023-03-21T19:25:10.695Z,13.57
2023-03-21T19:27:39.791Z,13.56
2023-03-21T19:30:15.279Z,13.50
2023-03-21T19:32:51.235Z,13.45
2023-03-21T19:35:20.223Z,13.43
2023-03-21T19:37:48.564Z,13.40
2023-03-21T19:40:22.466Z,13.36
2023-03-21T19:42:50.696Z,13.38
2023-03-21T19:45:18.334Z,13.43
2023-03-21T19:47:46.269Z,13.44
2023-03-21T19:53:01.768Z,13.44
2023-03-21T19:55:30.903Z,13.43
2023-03-21T19:57:58.875Z,13.40
2023-03-21T20:00:26.497Z,13.39
2023-03-21T20:02:54.333Z,13.36
2023-03-21T20:05:22.283Z,13.32
2023-03-21T20:07:57.094Z,13.30
2023-03-21T20:10:34.858Z,13.26
2023-03-21T20:13:03.973Z,13.22
2023-03-21T20:15:32.260Z,13.16
2023-03-21T20:18:00.241Z,13.14
2023-03-21T20:20:28.049Z,13.17
2023-03-21T20:23:06.810Z,13.19
2023-03-21T20:25:34.899Z,13.18
2023-03-21T20:28:15.791Z,13.17
2023-03-21T20:30:48.617Z,13.15
2023-03-21T20:33:16.194Z,13.12
2023-03-21T20:36:30.888Z,13.09
2023-03-21T20:38:31.880Z,13.06
2023-03-21T20:40:59.444Z,13.03
2023-03-21T20:44:17.463Z,13.04
2023-03-21T20:46:17.439Z,13.07
2023-03-21T20:48:48.756Z,13.10
2023-03-21T20:52:12.398Z,13.05
2023-03-21T20:54:05.159Z,12.99
2023-03-21T20:56:32.997Z,12.95
2023-03-21T20:59:15.707Z,12.92
2023-03-21T21:01:45.410Z,12.92
2023-03-21T21:04:19.237Z,12.87
2023-03-21T21:06:47.689Z,12.87
2023-03-21T21:09:15.522Z,12.90
2023-03-21T21:12:06.055Z,12.90
2023-03-21T21:14:31.964Z,12.92
2023-03-21T21:17:02.593Z,12.97
2023-03-21T21:19:36.051Z,12.97
2023-03-21T21:22:03.635Z,12.99
2023-03-21T21:24:32.031Z,13.01
2023-03-21T21:26:59.560Z,13.02
2023-03-21T21:29:28.323Z,13.05
2023-03-21T21:31:57.228Z,13.11
2023-03-21T21:34:24.787Z,13.12
2023-03-21T21:36:52.336Z,13.13
2023-03-21T21:39:21.870Z,13.09
2023-03-21T21:41:49.656Z,13.03
2023-03-21T21:44:19.221Z,13.06
2023-03-21T21:46:47.114Z,13.10
2023-03-21T21:49:16.466Z,13.12
2023-03-21T21:51:47.732Z,13.12
2023-03-21T21:54:18.227Z,13.13
2023-03-21T21:56:48.220Z,13.07
2023-03-21T21:59:17.085Z,13.03
2023-03-21T22:01:46.632Z,13.03
2023-03-21T22:04:17.963Z,13.01
2023-03-21T22:06:47.507Z,12.94
2023-03-21T22:09:15.813Z,12.87
2023-03-21T22:11:43.724Z,12.86
2023-03-21T22:14:11.227Z,12.83
2023-03-21T22:16:38.777Z,12.77
2023-03-21T22:19:06.430Z,12.73
2023-03-21T22:21:35.311Z,12.69
2023-03-21T22:24:02.836Z,12.66
2023-03-21T22:26:30.543Z,12.61
2023-03-21T22:28:59.852Z,12.57
2023-03-21T22:31:27.527Z,12.55
2023-03-21T22:33:55.090Z,12.51
2023-03-21T22:36:22.588Z,12.48
2023-03-21T22:38:51.456Z,12.44
2023-03-21T22:41:18.991Z,12.40
2023-03-21T22:43:46.536Z,12.36
2023-03-21T22:46:14.068Z,12.32
2023-03-21T22:48:41.862Z,12.26
2023-03-21T22:51:10.328Z,12.25
2023-03-21T22:53:37.858Z,12.23
2023-03-21T22:56:07.812Z,12.21
2023-03-21T22:58:35.519Z,12.18
2023-03-21T23:01:05.171Z,12.15
2023-03-21T23:03:32.777Z,12.13
2023-03-21T23:06:01.406Z,12.11
2023-03-21T23:08:29.151Z,12.08
2023-03-21T23:10:56.994Z,12.04
2023-03-21T23:13:26.670Z,12.03
2023-03-21T23:15:54.221Z,12.03
2023-03-21T23:18:21.872Z,12.02
2023-03-21T23:20:50.245Z,12.01
2023-03-21T23:23:18.321Z,11.98
2023-03-21T23:25:46.152Z,11.97
2023-03-21T23:28:13.723Z,11.94
2023-03-21T23:30:42.575Z,11.91
2023-03-21T23:33:10.145Z,11.97
2023-03-21T23:35:38.344Z,12.05
2023-03-21T23:38:06.373Z,12.09
2023-03-21T23:40:33.912Z,12.09
2023-03-21T23:43:01.444Z,12.08
2023-03-21T23:45:28.984Z,12.06
2023-03-21T23:47:57.856Z,12.04
2023-03-21T23:50:25.428Z,12.02
2023-03-21T23:52:52.972Z,12.01
2023-03-21T23:55:20.651Z,12.03
2023-03-21T23:57:49.777Z,12.06
